AirNav   SIMCOM
 
 478 users online  

NV61 Gilbert Development Corp Heliport
Las Vegas, Nevada, USA

GOING TO LAS VEGAS?


FAA INFORMATION EFFECTIVE 20 JULY 2017

Location

FAA Identifier: NV61
Lat/Long: 36-13-04.8900N / 115-08-01.0090W
36-13.081500N / 115-08.016817W
36.2180250 / -115.1336136
(estimated)
Elevation: 1981 ft. / 604 m (estimated)
Variation: 14E (1985)
From city: 5 miles W of LAS VEGAS, NV
Time zone: UTC -7 (UTC -8 during Standard Time)
Zip code: 89030

Heliport Operations

Heliport use: Private use. Permission required prior to landing
Activation date: 12/1982
Control tower: no
ARTCC: LOS ANGELES CENTER
FSS: RENO FLIGHT SERVICE STATION
Attendance: UNATNDD
Wind indicator: yes
Segmented circle: no

Heliport Communications

WX ASOS at VGT (3 nm W): 118.05 (702-648-6633)
WX ASOS at LAS (8 nm S): PHONE 702-736-1416
WX AWOS-3PT at HND (15 nm S): 120.775 (702-614-4537)

Nearby radio navigation aids

VOR radial/distance  VOR name  Freq  Var
LASr354/8.4LAS VEGAS VORTAC116.9015E
BLDr301/18.7BOULDER CITY VORTAC116.7015E

Heliport Services

Runway Information

Helipad H1

Dimensions: 60 x 60 ft. / 18 x 18 m
Surface: asphalt
Runway edge lights: FLOODLIGHTS
Traffic pattern: leftleft

Heliport Ownership and Management from official FAA records

Ownership: Privately-owned
Owner: STEVE GILBERT
PO BOX 665
CEDAR CITY, UT 84720
Phone 435-586-5138
Manager: STEVE GILBERT
PO BOX 665
CEDAR CITY, UT 84720
Phone 435-586-5138

Heliport Operational Statistics

Aircraft based on the field: 1
Helicopters: 1
    

Additional Remarks

A52-H1 6' FENCE 50' NE.

Instrument Procedures

There are no published instrument procedures at NV61.

Some nearby airports with instrument procedures:

KVGT - North Las Vegas Airport (3 nm W)
KLSV - Nellis Air Force Base (5 nm E)
KLAS - Mc Carran International Airport (8 nm S)
KHND - Henderson Executive Airport (15 nm S)
KBVU - Boulder City Municipal Airport (21 nm SE)
 
Loc | Ops | Rwys | IFR | FBO | Links
Com | Nav | Svcs | Stats | Notes


 
Area around NV61 (Gilbert Development Corp Heliport)
 
Road maps at: MapQuest Bing Google
 
Aerial photo
No photo
 
Sectional chart

 
Airport distance calculator
Flying to Gilbert Development Corp Heliport? Find the distance to fly.

From to NV61

Sunrise and sunset
Times for 24-Jul-2017
 Local
(UTC-7)
 Zulu
(UTC)
Morning civil twilight05:1312:13
Sunrise05:4212:42
Sunset19:5202:52
Evening civil twilight20:2103:21

Current date and time
Zulu (UTC)  25-Jul-2017 05:21:12
Local (UTC-7)  24-Jul-2017 22:21:12
 
METAR
KVGT 
3nm W 
250453Z AUTO 20010KT 10SM FEW120 32/16 A2985 RMK AO2 SLP095 T03170156
KLSV 
6nm E 
250458Z 17016KT 10SM SCT120 BKN150 32/17 A2984 RMK AO2A SLP078 T03170168 $
KLAS 
8nm S 
250456Z 18012KT 10SM BKN120 BKN150 BKN200 31/18 A2987 RMK AO2 SLP086 T03060178
KHND 
14nm S 
250456Z AUTO 19011KT 10SM CLR 29/17 A2992 RMK AO2 SLP100 T02940172
TAF
KVGT 
3nm W 
241732Z 2418/2518 14010KT P6SM SCT100 BKN150 FM242000 15010KT P6SM VCTS SCT100CB BKN150 TEMPO 2421/2501 VRB15G25KT -TSRA BKN070CB FM250400 19008KT P6SM SCT150 BKN250
KLSV 
6nm E 
250346Z 2503/2605 13010G15KT 9999 SCT100 BKN140 QNH2980INS TEMPO 2503/2506 VRB15G25KT 8000 -SHRA VCTS BKN080CB BECMG 2505/2506 13012KT 9999 NSW SCT100 BKN140 QNH2981INS BECMG 2508/2509 13012G18KT 9999 VCTS SCT100CB BKN140 QNH2985INS BECMG 2512/2513 10009KT 9999 NSW FEW100 SCT150 QNH2989INS BECMG 2522/2523 13012G18KT 9999 VCTS SCT100CB QNH2987INS TX35/2523Z TN25/2512Z
KLAS 
8nm S 
250226Z 2502/2606 22012KT P6SM VCTS SCT100CB BKN150 TEMPO 2505/2508 VRB15G25KT -TSRA BKN070CB FM251000 VRB06KT P6SM SCT100 BKN150 FM252000 15010KT P6SM VCTS SCT100CB BKN150 TEMPO 2520/2524 VRB15G25KT -TSRA BKN080CB
KHND 
14nm S 
241732Z 2418/2518 15012KT P6SM SCT100 BKN150 FM242000 17010KT P6SM VCTS SCT100CB BKN150 TEMPO 2421/2501 VRB15G25KT -TSRA BKN080CB FM250400 19008KT P6SM SCT150 BKN250
NOTAMs
Click for the latest NOTAMs
NOTAMs are issued by the DoD/FAA and will open in a separate window not controlled by AirNav.

 

 
 

Would you like to see your business listed on this page?

 If your business provides an interesting product or service to pilots, flight crews, aircraft, or users of the Gilbert Development Corp Heliport, you should consider listing it here.  To start the listing process, click on the button below
 
Add a business
 

Other Pages about Gilbert Development Corp Heliport

Update a link
 
Copyright © AirNav, LLC. All rights reserved. Privacy Policy  Contact